Time;durP1;ratioP1;P1;durP2;ratioP2;P2;SDS_P1;SDS_P2;PMS_P1;PMS_P2;Temp;Humidity;BMP_temperature;BMP_pressure;BME280_temperature;BME280_humidity;BME280_pressure;Samples;Min_cycle;Max_cycle;Signal;HPM_P1;HPM_P2
2022/03/29 00:02:17;;;;;;;73.15;33.78;;;;;;;9.70;75.95;99270.19;4960019;28;20034;-54
2022/03/29 00:04:43;;;;;;;84.20;35.80;;;;;;;9.75;75.40;99271.34;4959401;28;20461;-51
2022/03/29 00:07:08;;;;;;;81.68;35.50;;;;;;;9.62;75.66;99267.06;4959563;28;20565;-53
2022/03/29 00:09:34;;;;;;;81.10;36.17;;;;;;;9.59;76.10;99263.00;4965856;28;20042;-52
2022/03/29 00:11:59;;;;;;;83.55;34.42;;;;;;;9.45;76.69;99257.06;4968278;28;20465;-53
2022/03/29 00:14:25;;;;;;;82.70;36.28;;;;;;;9.47;76.36;99256.84;4967754;28;20026;-52
2022/03/29 00:16:50;;;;;;;78.50;34.40;;;;;;;9.43;76.60;99258.34;4965556;28;20023;-51
2022/03/29 00:19:16;;;;;;;77.93;33.95;;;;;;;9.38;76.99;99253.69;4966341;28;20471;-53
2022/03/29 00:21:41;;;;;;;80.35;35.28;;;;;;;9.36;76.88;99246.97;4969584;28;20405;-53
2022/03/29 00:24:07;;;;;;;87.65;35.25;;;;;;;9.36;77.02;99246.97;4964055;28;20565;-53
2022/03/29 00:26:32;;;;;;;79.40;35.35;;;;;;;9.34;77.02;99255.25;4964929;28;20038;-53
2022/03/29 00:28:58;;;;;;;83.80;36.60;;;;;;;9.31;77.17;99246.84;4963266;28;20034;-55
2022/03/29 00:31:23;;;;;;;86.50;36.00;;;;;;;9.29;77.11;99231.88;4968651;28;20018;-51
2022/03/29 00:33:49;;;;;;;97.90;39.03;;;;;;;9.39;77.47;99241.97;4969860;28;20054;-51
2022/03/29 00:36:14;;;;;;;81.78;36.03;;;;;;;9.40;77.67;99229.41;4968566;28;20031;-54
2022/03/29 00:38:40;;;;;;;81.28;35.65;;;;;;;9.41;77.51;99234.53;4968489;28;20039;-54
2022/03/29 00:41:06;;;;;;;80.80;35.33;;;;;;;9.39;77.32;99236.63;4969446;28;20359;-50
2022/03/29 00:43:31;;;;;;;75.72;34.67;;;;;;;9.26;77.36;99232.34;4964417;28;20026;-51
2022/03/29 00:45:57;;;;;;;87.03;37.42;;;;;;;9.03;78.42;99226.97;4957077;28;20110;-51
2022/03/29 00:48:23;;;;;;;90.85;37.25;;;;;;;9.02;78.31;99225.38;4962738;28;20093;-53
2022/03/29 00:50:49;;;;;;;88.07;35.92;;;;;;;8.93;78.85;99230.22;4958180;28;20120;-53
2022/03/29 00:53:14;;;;;;;92.53;38.67;;;;;;;8.87;79.26;99222.34;4969366;28;20481;-50
2022/03/29 00:55:41;;;;;;;97.75;38.65;;;;;;;8.92;79.04;99220.59;4950714;28;20023;-53
2022/03/29 00:58:07;;;;;;;88.53;37.80;;;;;;;8.95;78.79;99221.97;4944308;28;20031;-51
2022/03/29 01:00:34;;;;;;;91.90;36.80;;;;;;;8.93;79.31;99221.41;4965003;28;20027;-52
2022/03/29 01:03:02;;;;;;;92.20;38.88;;;;;;;8.81;79.77;99214.19;4963395;28;20031;-50
2022/03/29 01:05:27;;;;;;;89.47;38.95;;;;;;;8.84;79.54;99212.91;4966377;28;20039;-51
2022/03/29 01:07:54;;;;;;;82.32;37.33;;;;;;;8.71;80.13;99208.63;4968288;28;20033;-50
2022/03/29 01:10:20;;;;;;;90.07;37.15;;;;;;;8.73;80.28;99200.34;4957064;28;20059;-51
2022/03/29 01:12:46;;;;;;;95.97;38.70;;;;;;;8.62;80.84;99205.44;4961093;28;20113;-50
2022/03/29 01:15:12;;;;;;;90.78;38.20;;;;;;;8.77;80.79;99197.00;4964120;28;20025;-50
2022/03/29 01:17:40;;;;;;;88.68;35.10;;;;;;;8.85;80.96;99201.16;4947669;29;20023;-50
2022/03/29 01:20:13;;;;;;;78.68;37.65;;;;;;;8.94;79.61;99198.97;4967734;28;20385;-50
2022/03/29 01:22:44;;;;;;;109.00;40.05;;;;;;;8.90;79.54;99195.94;4959601;28;20461;-54
2022/03/29 01:25:12;;;;;;;85.25;37.00;;;;;;;8.93;81.04;99194.66;4963448;28;20034;-52
2022/03/29 01:27:37;;;;;;;95.10;39.42;;;;;;;8.87;79.13;99191.06;4967311;28;20038;-53
2022/03/29 01:30:03;;;;;;;98.65;39.00;;;;;;;8.84;79.98;99187.00;4960128;28;20038;-51
2022/03/29 01:32:29;;;;;;;93.63;39.78;;;;;;;8.81;80.09;99192.81;4958363;28;20140;-52
2022/03/29 01:34:55;;;;;;;93.05;39.38;;;;;;;8.67;81.73;99186.06;4949157;28;20034;-52
2022/03/29 01:37:21;;;;;;;102.68;41.50;;;;;;;8.67;81.05;99175.38;4956972;28;20174;-52
2022/03/29 01:39:46;;;;;;;103.22;41.50;;;;;;;8.69;80.57;99167.94;4956376;28;20043;-51
2022/03/29 01:42:12;;;;;;;105.03;41.05;;;;;;;8.78;80.72;99176.41;4957570;28;20389;-50
2022/03/29 01:44:37;;;;;;;100.35;40.50;;;;;;;8.83;79.98;99166.66;4963652;28;20030;-50
2022/03/29 01:47:03;;;;;;;96.82;39.97;;;;;;;8.86;79.61;99168.03;4966192;28;20034;-52
2022/03/29 01:49:28;;;;;;;101.82;40.53;;;;;;;8.76;79.84;99168.66;4964017;28;20039;-51
2022/03/29 01:51:55;;;;;;;103.80;39.33;;;;;;;8.72;79.96;99167.47;4965081;28;20031;-50
2022/03/29 01:54:20;;;;;;;97.30;40.65;;;;;;;8.63;80.35;99163.50;4962694;28;20377;-51
2022/03/29 01:56:46;;;;;;;103.13;41.05;;;;;;;8.42;81.76;99157.69;4960816;28;20027;-52
2022/03/29 01:59:11;;;;;;;95.78;40.47;;;;;;;8.42;82.24;99157.69;4963369;28;20504;-50
2022/03/29 02:01:41;;;;;;;98.38;41.08;;;;;;;8.59;82.06;99159.69;4959875;28;20041;-51
2022/03/29 02:04:07;;;;;;;100.00;41.25;;;;;;;8.73;80.71;99155.72;4966852;28;20037;-50
2022/03/29 02:06:32;;;;;;;101.10;41.67;;;;;;;8.80;80.64;99152.94;4963090;28;20030;-49
2022/03/29 02:08:57;;;;;;;101.50;40.28;;;;;;;8.77;80.27;99162.25;4962951;28;20039;-51
2022/03/29 02:11:23;;;;;;;102.30;40.50;;;;;;;8.76;80.15;99149.94;4966760;28;20027;-51
2022/03/29 02:13:48;;;;;;;98.00;42.03;;;;;;;8.98;79.77;99149.34;4967038;28;20029;-51
2022/03/29 02:16:14;;;;;;;117.97;43.90;;;;;;;8.74;80.41;99148.53;4961196;28;20085;-50
2022/03/29 02:18:39;;;;;;;105.57;40.90;;;;;;;8.73;81.08;99137.03;4965453;28;20098;-51
2022/03/29 02:21:05;;;;;;;103.95;41.92;;;;;;;8.88;80.63;99143.75;4921057;28;1142395;-51
2022/03/29 02:23:30;;;;;;;108.90;42.60;;;;;;;8.83;80.28;99141.78;4965016;28;20089;-52
2022/03/29 02:25:55;;;;;;;105.70;41.17;;;;;;;8.73;81.21;99137.03;4967204;28;20038;-50
2022/03/29 02:28:21;;;;;;;103.65;42.35;;;;;;;8.78;80.13;99134.47;4958337;28;20027;-51
2022/03/29 02:30:46;;;;;;;107.07;40.10;;;;;;;8.76;81.37;99127.72;4953688;28;20031;-53
2022/03/29 02:33:12;;;;;;;102.57;40.60;;;;;;;8.77;81.66;99124.84;4962672;28;20030;-51
2022/03/29 02:35:37;;;;;;;95.43;38.53;;;;;;;8.88;82.28;99133.06;4957808;28;20421;-50
2022/03/29 02:38:03;;;;;;;101.82;41.80;;;;;;;8.88;81.02;99133.06;4963469;28;20045;-49
2022/03/29 02:40:28;;;;;;;93.93;40.05;;;;;;;8.88;81.57;99128.53;4966647;28;20034;-51
2022/03/29 02:42:57;;;;;;;110.47;42.83;;;;;;;8.83;81.60;99126.56;4964004;28;20062;-53
2022/03/29 02:45:24;;;;;;;108.35;43.33;;;;;;;8.68;80.89;99117.41;4950650;28;20087;-52
2022/03/29 02:47:51;;;;;;;108.22;40.60;;;;;;;8.73;81.85;99115.66;4963278;28;20027;-53
2022/03/29 02:50:17;;;;;;;114.05;43.88;;;;;;;8.65;80.81;99113.34;4965675;28;20409;-50
2022/03/29 02:52:43;;;;;;;109.85;42.97;;;;;;;8.69;80.94;99109.16;4967752;28;20027;-53
2022/03/29 02:55:09;;;;;;;124.55;44.20;;;;;;;8.64;81.21;99107.19;4964342;28;20440;-52
2022/03/29 02:57:34;;;;;;;104.55;42.42;;;;;;;8.60;81.56;99105.19;4966817;28;20757;-50
2022/03/29 03:00:00;;;;;;;109.80;44.03;;;;;;;8.52;81.69;99106.38;4954260;28;20035;-50
2022/03/29 03:02:25;;;;;;;105.38;44.60;;;;;;;8.45;82.38;99103.00;4961572;28;20497;-53
2022/03/29 03:04:51;;;;;;;121.68;46.03;;;;;;;8.27;82.76;99095.06;4963664;28;20549;-53
2022/03/29 03:07:17;;;;;;;117.53;43.65;;;;;;;8.38;82.08;99096.91;4966690;28;20382;-52
2022/03/29 03:09:42;;;;;;;108.45;45.35;;;;;;;8.35;82.28;99098.19;4959144;28;20031;-50
2022/03/29 03:12:08;;;;;;;125.50;46.92;;;;;;;8.30;82.27;99090.06;4965915;28;20044;-50
2022/03/29 03:14:33;;;;;;;108.13;45.15;;;;;;;8.18;82.92;99092.69;4953598;28;20039;-52
2022/03/29 03:16:59;;;;;;;124.88;45.40;;;;;;;8.16;82.97;99084.13;4961843;28;20058;-52
2022/03/29 03:19:24;;;;;;;121.55;46.22;;;;;;;8.27;82.87;99079.84;4966933;28;20397;-52
2022/03/29 03:21:50;;;;;;;116.80;45.20;;;;;;;8.24;82.84;99084.81;4960599;28;20134;-53
2022/03/29 03:24:17;;;;;;;115.55;45.80;;;;;;;8.24;82.88;99082.16;4960501;28;20042;-53
2022/03/29 03:26:42;;;;;;;127.90;46.55;;;;;;;8.12;83.00;99080.28;4962796;28;20367;-50
2022/03/29 03:29:08;;;;;;;117.55;46.15;;;;;;;8.09;83.21;99072.75;4970733;28;20070;-53
2022/03/29 03:31:34;;;;;;;112.75;43.75;;;;;;;8.13;82.79;99073.09;4964612;28;20046;-52
2022/03/29 03:33:59;;;;;;;125.95;48.15;;;;;;;8.17;83.20;99072.41;4967362;28;20027;-53
2022/03/29 03:36:24;;;;;;;133.65;48.65;;;;;;;8.04;83.53;99072.63;4969471;28;20321;-53
2022/03/29 03:38:50;;;;;;;125.15;44.53;;;;;;;7.96;83.66;99062.25;4971113;28;20351;-53
2022/03/29 03:41:15;;;;;;;120.85;46.17;;;;;;;8.05;83.42;99060.91;4969522;28;20046;-53
2022/03/29 03:43:41;;;;;;;111.30;45.08;;;;;;;8.05;82.98;99060.09;4971411;28;20091;-54
2022/03/29 03:46:06;;;;;;;112.70;43.78;;;;;;;8.00;83.73;99052.75;4964556;28;20077;-52
2022/03/29 03:48:31;;;;;;;121.70;46.95;;;;;;;8.06;83.16;99054.50;4959363;28;20035;-50
2022/03/29 03:50:57;;;;;;;112.43;45.85;;;;;;;7.85;83.18;99053.19;4960489;28;20299;-53
2022/03/29 03:53:23;;;;;;;120.97;43.72;;;;;;;7.85;84.20;99049.72;4963698;28;20382;-53
2022/03/29 03:55:48;;;;;;;112.05;43.75;;;;;;;7.75;83.53;99056.41;4959793;28;20035;-52
2022/03/29 03:58:13;;;;;;;106.68;43.55;;;;;;;7.58;85.05;99050.09;4970773;28;20612;-52
2022/03/29 04:00:39;;;;;;;113.53;44.45;;;;;;;7.45;85.40;99045.78;4968882;28;20393;-53
2022/03/29 04:03:05;;;;;;;124.00;44.72;;;;;;;7.43;85.51;99031.84;4960796;28;20039;-53
2022/03/29 04:05:31;;;;;;;120.97;46.05;;;;;;;7.38;85.60;99033.56;4968377;28;20046;-52
2022/03/29 04:07:57;;;;;;;110.32;42.45;;;;;;;7.33;85.99;99031.59;4965107;28;20121;-50
2022/03/29 04:10:22;;;;;;;119.45;46.58;;;;;;;7.24;86.08;99025.75;4963305;28;20039;-52
2022/03/29 04:12:48;;;;;;;117.70;43.78;;;;;;;7.23;86.73;99029.44;4966027;28;20037;-51
2022/03/29 04:15:13;;;;;;;109.13;43.17;;;;;;;7.09;87.93;99026.16;4969311;28;20544;-52
2022/03/29 04:17:39;;;;;;;129.10;44.90;;;;;;;7.10;86.54;99022.44;4963927;28;20050;-52
2022/03/29 04:20:05;;;;;;;118.28;45.28;;;;;;;7.09;86.68;99022.69;4961976;28;20504;-52
2022/03/29 04:22:30;;;;;;;102.03;42.38;;;;;;;7.09;87.43;99020.03;4965144;28;20155;-53
2022/03/29 04:24:55;;;;;;;114.68;46.03;;;;;;;7.01;87.46;99018.44;4970235;28;20030;-52
2022/03/29 04:27:21;;;;;;;123.50;46.30;;;;;;;7.00;87.46;99021.34;4968658;28;20038;-53
2022/03/29 04:29:46;;;;;;;124.53;44.65;;;;;;;6.95;87.64;99019.34;4941594;28;20386;-52
2022/03/29 04:32:12;;;;;;;125.13;46.78;;;;;;;6.87;88.17;99017.00;4963553;28;20118;-51
2022/03/29 04:34:37;;;;;;;125.32;46.92;;;;;;;6.85;88.07;99008.41;4958087;28;20028;-51
2022/03/29 04:37:03;;;;;;;132.90;49.92;;;;;;;6.71;88.86;99010.41;4966804;28;20203;-49
2022/03/29 04:39:30;;;;;;;117.50;47.85;;;;;;;6.83;88.41;99010.50;4968925;28;20026;-50
2022/03/29 04:41:57;;;;;;;138.40;49.72;;;;;;;6.93;88.62;99010.78;4964251;28;20042;-49
2022/03/29 04:44:22;;;;;;;136.60;49.47;;;;;;;6.74;89.08;99017.16;4963248;28;20453;-50
2022/03/29 04:46:48;;;;;;;123.85;47.88;;;;;;;6.63;89.05;99006.19;4968357;28;20035;-50
2022/03/29 04:49:13;;;;;;;131.60;49.22;;;;;;;6.75;89.01;99014.28;4959520;28;20528;-52
2022/03/29 04:51:39;;;;;;;147.80;53.00;;;;;;;6.79;89.07;99009.28;4963485;28;20419;-50
2022/03/29 04:54:04;;;;;;;140.18;53.60;;;;;;;7.05;88.27;99001.00;4966130;28;20035;-51
2022/03/29 04:56:29;;;;;;;158.93;52.80;;;;;;;7.15;87.32;99000.44;4968192;28;20022;-52
2022/03/29 04:58:55;;;;;;;146.90;49.67;;;;;;;6.97;87.53;98998.63;4962107;28;20035;-49
2022/03/29 05:01:21;;;;;;;158.77;49.60;;;;;;;6.97;87.85;98995.97;4964753;28;20027;-52
2022/03/29 05:03:46;;;;;;;151.48;52.83;;;;;;;6.92;87.83;98987.84;4966863;28;20031;-53
2022/03/29 05:06:11;;;;;;;175.00;57.47;;;;;;;6.98;88.01;98994.94;4963630;28;20448;-50
2022/03/29 05:08:37;;;;;;;160.18;55.88;;;;;;;7.15;88.02;99002.31;4968874;28;20043;-52
2022/03/29 05:11:02;;;;;;;157.15;53.10;;;;;;;7.01;88.00;98997.13;4968398;28;20031;-52
2022/03/29 05:13:28;;;;;;;149.63;52.65;;;;;;;6.99;88.60;98996.56;4968931;28;20026;-52
2022/03/29 05:15:54;;;;;;;141.48;52.75;;;;;;;6.96;88.68;98991.66;4967800;28;21004;-52
2022/03/29 05:18:19;;;;;;;150.93;51.33;;;;;;;7.05;88.78;98992.19;4968216;28;20042;-52
2022/03/29 05:20:45;;;;;;;142.07;48.35;;;;;;;7.20;88.81;98981.13;4963828;28;20073;-49
2022/03/29 05:23:10;;;;;;;137.05;50.78;;;;;;;7.21;88.39;98986.22;4964241;28;20034;-52
2022/03/29 05:25:36;;;;;;;128.90;46.72;;;;;;;7.08;87.93;98984.53;4964267;28;20078;-52
2022/03/29 05:28:01;;;;;;;123.70;46.42;;;;;;;6.87;88.08;98985.84;4964653;28;20038;-50
2022/03/29 05:30:27;;;;;;;120.50;44.45;;;;;;;6.47;87.76;98983.66;4964047;28;20394;-51
2022/03/29 05:32:57;;;;;;;140.85;46.80;;;;;;;6.69;91.10;98980.53;4966842;28;20042;-52
2022/03/29 05:35:25;;;;;;;128.88;46.85;;;;;;;6.91;88.55;98984.38;4967757;28;20042;-52
2022/03/29 05:37:50;;;;;;;147.30;50.53;;;;;;;6.83;88.20;98981.19;4962661;28;20035;-51
2022/03/29 05:40:16;;;;;;;124.03;45.25;;;;;;;7.00;89.54;98984.06;4967291;28;20023;-54
2022/03/29 05:42:43;;;;;;;117.38;46.40;;;;;;;7.00;87.88;98990.19;4961272;28;20027;-53
2022/03/29 05:45:09;;;;;;;125.78;46.22;;;;;;;6.60;87.30;98984.53;4966457;28;20077;-52
2022/03/29 05:50:22;;;;;;;155.10;53.00;;;;;;;7.24;88.08;98977.78;4961473;28;20045;-50
2022/03/29 05:52:47;;;;;;;129.93;47.47;;;;;;;7.29;87.74;98979.78;4950141;28;20018;-52
2022/03/29 05:55:12;;;;;;;153.80;48.50;;;;;;;7.48;86.87;98975.97;4967937;28;20030;-49
2022/03/29 05:57:38;;;;;;;134.68;47.70;;;;;;;7.46;84.18;98978.09;4963839;28;20038;-51
2022/03/29 06:00:06;;;;;;;118.05;45.20;;;;;;;7.40;84.04;98976.31;4941370;28;20081;-51
2022/03/29 06:02:32;;;;;;;142.07;50.03;;;;;;;7.42;86.51;98976.91;4966410;28;20660;-52
2022/03/29 06:04:58;;;;;;;139.40;47.47;;;;;;;7.30;85.79;98976.84;4956164;28;20553;-51
2022/03/29 06:07:24;;;;;;;149.18;50.03;;;;;;;7.40;85.83;98988.84;4959448;28;20027;-50
2022/03/29 06:09:50;;;;;;;122.10;46.08;;;;;;;7.38;84.12;98977.59;4966735;28;20043;-52
2022/03/29 06:12:20;;;;;;;133.60;46.83;;;;;;;7.33;85.84;98984.41;4963180;28;20030;-52
2022/03/29 06:14:45;;;;;;;;;;;;;;;7.51;85.29;98986.22;4966862;28;20037;-53
2022/03/29 06:17:11;;;;;;;123.82;45.58;;;;;;;7.66;84.88;98984.94;4960437;28;19918;-52
2022/03/29 06:19:36;;;;;;;141.50;46.63;;;;;;;7.78;84.51;98981.25;4956537;28;20027;-50
2022/03/29 06:22:03;;;;;;;148.00;46.90;;;;;;;7.87;82.99;98989.75;4965740;28;20045;-51
2022/03/29 06:24:28;;;;;;;127.53;45.50;;;;;;;8.02;83.04;98980.47;4967884;28;20027;-53
2022/03/29 06:26:54;;;;;;;128.18;43.53;;;;;;;8.03;81.47;98990.09;4958069;28;20520;-53
2022/03/29 06:29:19;;;;;;;117.30;44.40;;;;;;;8.06;80.73;98987.78;4959915;28;20578;-50
2022/03/29 06:31:44;;;;;;;124.25;45.63;;;;;;;8.03;80.56;98982.91;4974114;28;20137;-49
2022/03/29 06:34:10;;;;;;;118.85;44.25;;;;;;;8.08;80.09;98990.22;4964501;28;20461;-50
2022/03/29 06:36:35;;;;;;;123.00;45.17;;;;;;;7.93;80.61;98993.34;4960080;28;20061;-50
2022/03/29 06:39:01;;;;;;;123.75;46.17;;;;;;;7.91;81.06;98993.59;4960625;28;20039;-54
2022/03/29 06:41:26;;;;;;;143.65;54.53;;;;;;;7.99;81.10;99001.25;4963746;28;20038;-53
2022/03/29 06:43:52;;;;;;;121.80;48.65;;;;;;;8.34;81.20;99000.44;4956236;28;20038;-52
2022/03/29 06:46:18;;;;;;;132.15;51.90;;;;;;;8.45;79.11;98998.81;4964543;28;20034;-54
2022/03/29 06:48:44;;;;;;;135.45;50.10;;;;;;;8.39;79.30;98997.91;4966977;28;20492;-53
2022/03/29 06:51:13;;;;;;;127.13;48.58;;;;;;;8.38;79.53;99000.78;4962324;28;20069;-51
2022/03/29 06:53:42;;;;;;;122.72;47.45;;;;;;;8.47;80.10;99003.94;4955637;28;20512;-51
2022/03/29 06:56:08;;;;;;;127.57;48.47;;;;;;;8.60;79.41;98995.66;4962743;28;20473;-53
2022/03/29 06:58:34;;;;;;;121.75;46.38;;;;;;;8.49;79.93;99000.00;4968941;28;20035;-51
2022/03/29 07:01:00;;;;;;;119.88;45.78;;;;;;;8.47;82.90;99001.28;4964549;28;20035;-54
2022/03/29 07:03:27;;;;;;;112.78;43.95;;;;;;;8.57;83.32;98996.94;4965771;28;20038;-52
2022/03/29 07:05:52;;;;;;;105.82;43.88;;;;;;;8.48;83.50;98997.53;4970424;28;20031;-53
2022/03/29 07:08:20;;;;;;;132.07;45.33;;;;;;;8.62;82.32;99002.41;4970477;28;20472;-52
2022/03/29 07:13:30;;;;;;;127.68;46.88;;;;;;;8.85;81.89;98993.50;4962470;28;20693;-52
2022/03/29 07:15:56;;;;;;;115.80;46.70;;;;;;;9.00;81.28;98993.00;4965286;28;20031;-52
2022/03/29 07:18:21;;;;;;;105.55;43.28;;;;;;;9.19;80.48;98992.84;4961248;28;20027;-50
2022/03/29 07:20:47;;;;;;;118.25;46.83;;;;;;;9.10;80.96;98991.59;4967778;28;20057;-50
2022/03/29 07:23:13;;;;;;;143.70;46.38;;;;;;;9.20;80.68;98992.59;4967434;28;20035;-51
2022/03/29 07:25:38;;;;;;;110.05;46.47;;;;;;;9.27;80.64;98993.25;4969967;28;20027;-52
2022/03/29 07:28:04;;;;;;;125.63;48.67;;;;;;;9.33;79.18;98991.47;4963764;28;20031;-50
2022/03/29 07:30:31;;;;;;;113.13;45.53;;;;;;;9.53;78.51;98983.00;4967518;28;20093;-52
2022/03/29 07:32:59;;;;;;;131.10;44.97;;;;;;;9.55;77.76;98986.25;4965558;28;20047;-51
2022/03/29 07:35:27;;;;;;;110.50;44.33;;;;;;;9.72;78.51;98987.06;4949466;28;20031;-53
2022/03/29 07:37:52;;;;;;;126.32;46.78;;;;;;;9.82;77.76;98994.47;4964741;28;20019;-50
2022/03/29 07:40:21;;;;;;;121.55;45.25;;;;;;;9.81;78.51;98994.69;4970128;28;20046;-50
2022/03/29 07:42:47;;;;;;;120.35;46.13;;;;;;;10.23;77.30;98999.63;4970565;28;20035;-53
2022/03/29 07:45:13;;;;;;;108.18;43.88;;;;;;;10.46;75.28;98994.13;4970166;28;20054;-50
2022/03/29 07:47:41;;;;;;;112.50;45.88;;;;;;;10.66;74.91;98992.75;4969840;28;20066;-52
2022/03/29 07:50:07;;;;;;;121.93;45.38;;;;;;;10.64;74.93;98994.88;4970591;28;20038;-53
2022/03/29 07:52:36;;;;;;;108.47;43.90;;;;;;;10.92;74.76;98992.00;4970622;28;20065;-51
2022/03/29 07:55:03;;;;;;;117.28;42.22;;;;;;;11.30;73.42;98992.16;4959726;28;20553;-53
2022/03/29 07:57:28;;;;;;;111.28;44.65;;;;;;;10.93;74.37;98999.00;4959241;28;20106;-51
2022/03/29 07:59:53;;;;;;;116.40;42.88;;;;;;;10.67;76.06;98991.69;4966949;28;20580;-53
2022/03/29 08:02:19;;;;;;;122.88;44.55;;;;;;;11.31;73.39;98991.91;4965884;28;20031;-52
2022/03/29 08:04:44;;;;;;;100.32;42.75;;;;;;;11.30;73.02;98987.59;4970197;28;20030;-52
2022/03/29 08:07:10;;;;;;;100.32;42.55;;;;;;;11.36;71.02;98983.09;4964078;28;20046;-50
2022/03/29 08:09:35;;;;;;;109.90;44.17;;;;;;;11.05;71.65;98980.09;4965253;28;20031;-52
2022/03/29 08:12:00;;;;;;;121.82;44.85;;;;;;;11.26;70.36;98977.59;4962422;28;20035;-51
2022/03/29 08:14:26;;;;;;;114.30;44.33;;;;;;;11.34;70.14;98977.19;4961180;28;20458;-49
2022/03/29 08:16:53;;;;;;;109.75;42.80;;;;;;;11.39;69.38;98980.72;4969643;28;20086;-52
2022/03/29 08:19:19;;;;;;;104.72;43.97;;;;;;;11.51;69.46;98977.88;4961844;28;20042;-52
2022/03/29 08:21:50;;;;;;;100.72;44.15;;;;;;;11.83;69.28;98982.41;4953633;28;20040;-51
2022/03/29 08:24:20;;;;;;;114.18;42.35;;;;;;;12.13;66.89;98984.59;4950914;28;20038;-52
2022/03/29 08:26:47;;;;;;;122.97;44.47;;;;;;;11.71;69.02;98976.44;4969178;28;20031;-50
2022/03/29 08:29:12;;;;;;;125.53;45.42;;;;;;;12.08;68.18;98981.84;4968341;28;20727;-52
2022/03/29 08:31:41;;;;;;;118.32;45.47;;;;;;;12.26;67.96;98978.75;4963452;28;20038;-50
2022/03/29 08:34:07;;;;;;;143.25;44.08;;;;;;;12.22;65.92;98988.38;4966356;28;20034;-50
2022/03/29 08:36:33;;;;;;;149.05;43.75;;;;;;;12.02;66.69;98977.50;4968416;28;20031;-52
2022/03/29 08:38:58;;;;;;;133.18;45.40;;;;;;;11.50;70.34;98975.44;4967216;28;20481;-50
2022/03/29 08:41:25;;;;;;;143.77;45.97;;;;;;;11.30;70.97;98966.13;4962753;28;20031;-52
2022/03/29 08:43:51;;;;;;;143.70;45.90;;;;;;;11.10;70.58;98971.28;4961379;28;20030;-51
2022/03/29 08:46:16;;;;;;;155.23;46.05;;;;;;;11.27;70.53;98966.63;4959836;28;20034;-52
2022/03/29 08:48:42;;;;;;;139.50;44.63;;;;;;;11.29;70.79;98959.16;4959327;28;20053;-50
2022/03/29 08:51:07;;;;;;;136.88;44.95;;;;;;;11.30;70.70;98951.91;4954864;28;20038;-51
2022/03/29 08:53:33;;;;;;;121.38;41.95;;;;;;;11.18;69.16;98955.56;4964998;28;20363;-48
2022/03/29 08:55:58;;;;;;;126.03;42.72;;;;;;;11.10;69.33;98955.19;4964520;28;20054;-50
2022/03/29 08:58:24;;;;;;;135.25;43.83;;;;;;;10.99;69.63;98956.97;4964622;28;20428;-52
2022/03/29 09:00:50;;;;;;;136.68;44.13;;;;;;;10.82;70.34;98942.81;4959598;28;20043;-53
2022/03/29 09:03:16;;;;;;;129.23;44.33;;;;;;;11.04;69.87;98940.94;4968364;28;20049;-51
2022/03/29 09:05:42;;;;;;;127.40;43.17;;;;;;;10.86;69.28;98934.03;4963262;28;20102;-52
2022/03/29 09:08:12;;;;;;;125.90;44.83;;;;;;;11.01;69.15;98934.19;4965304;28;20037;-53
2022/03/29 09:10:44;;;;;;;111.93;42.00;;;;;;;11.30;68.37;98936.63;4968773;28;20035;-52
2022/03/29 09:13:29;;;;;;;120.40;43.72;;;;;;;10.93;69.39;98931.97;4969077;28;20390;-50
2022/03/29 09:15:59;;;;;;;121.43;42.42;;;;;;;11.15;69.73;98928.41;4964396;28;20051;-50
2022/03/29 09:18:25;;;;;;;108.45;42.63;;;;;;;11.20;69.54;98920.41;4968938;28;20490;-52
2022/03/29 09:21:13;;;;;;;108.30;43.67;;;;;;;11.38;69.90;98929.97;4967798;28;20098;-50
2022/03/29 09:23:39;;;;;;;126.93;44.85;;;;;;;11.87;67.83;98932.53;4956898;28;20478;-53
2022/03/29 09:26:04;;;;;;;123.82;46.05;;;;;;;12.50;66.79;98929.94;4960276;28;20022;-52
2022/03/29 09:28:34;;;;;;;118.22;46.08;;;;;;;12.55;65.99;98927.28;4962508;28;20119;-51
2022/03/29 09:30:59;;;;;;;120.40;44.45;;;;;;;12.99;64.75;98926.09;4967083;28;20037;-51
2022/03/29 09:33:31;;;;;;;110.80;44.10;;;;;;;12.86;64.49;98925.53;4968496;28;20043;-50
2022/03/29 09:36:07;;;;;;;123.55;45.40;;;;;;;13.12;63.71;98930.97;4961408;28;20511;-51
2022/03/29 09:38:41;;;;;;;116.50;45.03;;;;;;;13.28;63.29;98926.44;4959714;28;20031;-52
2022/03/29 09:41:28;;;;;;;118.13;45.08;;;;;;;12.95;64.67;98921.25;4961852;28;20474;-54
2022/03/29 09:44:06;;;;;;;103.43;43.35;;;;;;;13.73;61.73;98916.78;4962007;28;20031;-53
2022/03/29 09:46:52;;;;;;;112.97;45.33;;;;;;;12.58;64.68;98926.78;4968021;28;20380;-53
2022/03/29 09:49:17;;;;;;;115.22;46.83;;;;;;;13.09;63.82;98916.16;4945073;28;20031;-50
2022/03/29 09:51:43;;;;;;;112.07;46.03;;;;;;;13.51;63.50;98907.09;4966321;28;20035;-53
2022/03/29 09:54:08;;;;;;;104.38;45.22;;;;;;;13.79;62.47;98903.00;4954415;28;20478;-51
2022/03/29 09:56:34;;;;;;;112.95;45.20;;;;;;;13.40;62.87;98897.38;4961183;28;20452;-52
2022/03/29 09:59:02;;;;;;;127.10;47.05;;;;;;;13.26;63.70;98886.31;4967083;28;20039;-51
2022/03/29 10:01:28;;;;;;;113.70;43.38;;;;;;;13.73;63.05;98896.03;4966497;28;20492;-54
2022/03/29 10:03:53;;;;;;;125.90;45.97;;;;;;;13.22;63.96;98882.53;4965676;28;20023;-51
2022/03/29 10:06:20;;;;;;;117.32;44.42;;;;;;;13.71;62.80;98878.53;4966542;28;20043;-52
2022/03/29 10:11:30;;;;;;;117.00;45.58;;;;;;;13.44;63.28;98863.47;4960718;28;20050;-51
2022/03/29 10:13:55;;;;;;;111.05;44.78;;;;;;;13.15;63.77;98858.59;4950406;28;20470;-52
2022/03/29 10:16:21;;;;;;;98.45;44.35;;;;;;;13.48;62.17;98858.34;4962791;28;20517;-51
2022/03/29 10:18:46;;;;;;;109.43;45.88;;;;;;;12.94;62.89;98849.69;4956935;28;20050;-51
2022/03/29 10:21:15;;;;;;;100.55;44.00;;;;;;;14.29;60.24;98845.78;4960262;28;20832;-52
2022/03/29 10:23:43;;;;;;;93.75;41.22;;;;;;;14.11;59.31;98847.19;4964449;28;20034;-56
2022/03/29 10:26:08;;;;;;;105.60;43.67;;;;;;;14.63;58.28;98845.91;4955228;28;20081;-54
2022/03/29 10:28:34;;;;;;;122.63;43.55;;;;;;;14.22;59.16;98851.44;4964070;28;20043;-53
2022/03/29 10:30:59;;;;;;;108.30;45.28;;;;;;;13.71;60.41;98851.59;4964814;28;20041;-50
2022/03/29 10:33:33;;;;;;;95.47;42.55;;;;;;;13.84;60.33;98845.63;4966042;28;20457;-52
2022/03/29 10:35:58;;;;;;;92.13;40.85;;;;;;;14.02;59.07;98853.13;4963403;28;20057;-54
2022/03/29 10:38:46;;;;;;;89.32;40.50;;;;;;;13.64;60.23;98857.25;4961820;28;20489;-51
2022/03/29 10:41:27;;;;;;;98.55;40.40;;;;;;;14.99;56.42;98849.19;4958691;28;20031;-52
2022/03/29 10:44:04;;;;;;;94.75;40.97;;;;;;;14.86;55.32;98845.22;4967981;28;20038;-52
2022/03/29 10:46:40;;;;;;;91.65;40.60;;;;;;;13.83;57.64;98838.66;4963545;28;20493;-52
2022/03/29 10:49:20;;;;;;;90.40;41.72;;;;;;;13.33;60.12;98835.75;4967602;28;20033;-50
2022/03/29 10:51:47;;;;;;;98.45;40.97;;;;;;;14.46;56.75;98830.84;4964595;28;20074;-51
2022/03/29 10:54:30;;;;;;;86.93;38.30;;;;;;;14.83;55.37;98824.22;4966131;28;20039;-53
2022/03/29 10:57:03;;;;;;;78.35;35.95;;;;;;;14.28;56.11;98817.19;4962606;28;20046;-52
2022/03/29 10:59:34;;;;;;;78.25;34.90;;;;;;;14.54;56.00;98826.00;4956687;28;20035;-52
2022/03/29 11:02:15;;;;;;;76.50;34.78;;;;;;;14.40;54.95;98813.09;4940951;28;20031;-50
2022/03/29 11:05:02;;;;;;;81.43;35.70;;;;;;;15.26;54.83;98810.91;4959538;28;20027;-52
2022/03/29 11:07:28;;;;;;;82.82;34.13;;;;;;;15.50;53.17;98812.84;4963622;28;20497;-53
2022/03/29 11:10:15;;;;;;;83.05;35.20;;;;;;;15.03;52.52;98811.66;4964027;28;20393;-53
2022/03/29 11:12:45;;;;;;;78.65;36.55;;;;;;;15.29;52.14;98794.16;4961347;28;20630;-52
2022/03/29 11:15:35;;;;;;;76.13;33.53;;;;;;;15.69;51.17;98802.16;4955475;28;20045;-50
2022/03/29 11:18:02;;;;;;;76.97;32.60;;;;;;;14.91;53.21;98800.41;4957245;28;20042;-51
2022/03/29 11:20:27;;;;;;;77.10;34.10;;;;;;;14.95;53.02;98796.06;4961215;28;20038;-53
2022/03/29 11:22:52;;;;;;;72.13;32.50;;;;;;;14.60;54.12;98792.50;4967914;28;20041;-53
2022/03/29 11:25:22;;;;;;;72.93;33.67;;;;;;;15.41;52.49;98784.88;4954168;28;20358;-52